createdAt,value
2023-03-13T00:01:30.454Z,8.8
2023-03-13T00:04:55.744Z,8.76
2023-03-13T00:08:20.848Z,8.75
2023-03-13T00:11:46.061Z,8.72
2023-03-13T00:15:11.190Z,8.71
2023-03-13T00:18:36.404Z,8.7
2023-03-13T00:22:01.578Z,8.7
2023-03-13T00:25:26.753Z,8.73
2023-03-13T00:28:51.966Z,8.74
2023-03-13T00:32:17.240Z,8.76
2023-03-13T00:35:42.372Z,8.76
2023-03-13T00:39:07.575Z,8.75
2023-03-13T00:42:32.696Z,8.77
2023-03-13T00:45:57.969Z,8.8
2023-03-13T00:49:23.075Z,8.8
2023-03-13T00:52:48.256Z,8.83
2023-03-13T00:56:13.411Z,8.83
2023-03-13T00:59:38.623Z,8.83
2023-03-13T01:03:04.019Z,8.83
2023-03-13T01:06:29.000Z,8.85
2023-03-13T01:09:54.198Z,8.91
2023-03-13T01:13:19.401Z,8.97
2023-03-13T01:16:44.613Z,9.03
2023-03-13T01:20:09.828Z,9.1
2023-03-13T01:23:34.988Z,9.14
2023-03-13T01:27:00.176Z,9.12
2023-03-13T01:30:25.357Z,9.11
2023-03-13T01:33:50.549Z,9.08
2023-03-13T01:37:15.745Z,9.06
2023-03-13T01:40:40.918Z,9.08
2023-03-13T01:44:06.117Z,9.07
2023-03-13T01:47:31.288Z,9.09
2023-03-13T01:50:56.471Z,9.12
2023-03-13T01:54:21.697Z,9.13
2023-03-13T01:57:46.837Z,9.12
2023-03-13T02:01:12.010Z,9.1
2023-03-13T02:04:37.197Z,9.1
2023-03-13T02:08:02.364Z,9.11
2023-03-13T02:11:27.598Z,9.12
2023-03-13T02:14:52.728Z,9.13
2023-03-13T02:18:17.912Z,9.15
2023-03-13T02:21:43.090Z,9.19
2023-03-13T02:25:08.289Z,9.21
2023-03-13T02:28:33.485Z,9.26
2023-03-13T02:31:58.628Z,9.31
2023-03-13T02:35:23.926Z,9.32
2023-03-13T02:38:49.020Z,9.33
2023-03-13T02:42:14.190Z,9.34
2023-03-13T02:45:39.438Z,9.33
2023-03-13T02:49:04.596Z,9.32
2023-03-13T02:52:29.812Z,9.31
2023-03-13T02:55:55.035Z,9.29
2023-03-13T02:59:20.236Z,9.24
2023-03-13T03:02:45.490Z,9.22
2023-03-13T03:06:10.645Z,9.2
2023-03-13T03:09:35.827Z,9.17
2023-03-13T03:13:01.026Z,9.15
2023-03-13T03:16:26.272Z,9.14
2023-03-13T03:19:51.452Z,9.11
2023-03-13T03:23:16.588Z,9.08
2023-03-13T03:26:41.771Z,9.06
2023-03-13T03:30:07.693Z,9.09
2023-03-13T03:33:32.885Z,9.07
2023-03-13T03:36:58.085Z,9.06
2023-03-13T03:40:23.239Z,9.03
2023-03-13T03:43:48.425Z,9.03
2023-03-13T03:47:13.666Z,9.05
2023-03-13T03:50:38.799Z,9.03
2023-03-13T03:54:03.997Z,9.02
2023-03-13T03:57:29.154Z,9.03
2023-03-13T04:00:54.336Z,9.03
2023-03-13T04:04:19.525Z,9.02
2023-03-13T04:07:44.715Z,9.02
2023-03-13T04:11:10.007Z,9.05
2023-03-13T04:14:35.086Z,9.05
2023-03-13T04:18:00.288Z,9.04
2023-03-13T04:21:25.483Z,9.05
2023-03-13T04:24:50.676Z,9.04
2023-03-13T04:28:15.903Z,9.04
2023-03-13T04:31:41.125Z,9.05
2023-03-13T04:35:06.495Z,9.03
2023-03-13T04:38:31.656Z,9.03
2023-03-13T04:41:56.861Z,9.03
2023-03-13T04:45:22.081Z,9.04
2023-03-13T04:48:47.242Z,9.07
2023-03-13T04:52:12.437Z,9.08
2023-03-13T04:55:37.626Z,9.09
2023-03-13T04:59:02.860Z,9.09
2023-03-13T05:02:28.077Z,9.11
2023-03-13T05:05:53.221Z,9.12
2023-03-13T05:09:18.449Z,9.12
2023-03-13T05:12:43.670Z,9.16
2023-03-13T05:16:09.403Z,9.18
2023-03-13T05:19:34.595Z,9.21
2023-03-13T05:22:59.797Z,9.21
2023-03-13T05:26:24.981Z,9.2
2023-03-13T05:29:50.184Z,9.19
2023-03-13T05:33:15.385Z,9.16
2023-03-13T05:36:40.606Z,9.17
2023-03-13T05:40:05.791Z,9.17
2023-03-13T05:43:30.983Z,9.2
2023-03-13T05:46:56.182Z,9.34
2023-03-13T05:50:21.402Z,9.49
2023-03-13T05:53:46.616Z,9.58
2023-03-13T05:57:11.790Z,9.64
2023-03-13T06:00:37.003Z,9.68
2023-03-13T06:04:02.319Z,9.69
2023-03-13T06:07:27.388Z,9.72
2023-03-13T06:10:52.596Z,9.77
2023-03-13T06:14:17.766Z,9.83
2023-03-13T06:17:42.974Z,9.88
2023-03-13T06:21:08.187Z,9.94
2023-03-13T06:24:33.439Z,9.94
2023-03-13T06:27:58.637Z,9.97
2023-03-13T06:31:23.804Z,9.94
2023-03-13T06:34:49.032Z,9.9
2023-03-13T06:38:14.249Z,9.89
2023-03-13T06:41:39.447Z,9.88
2023-03-13T06:45:04.694Z,9.89
2023-03-13T06:48:29.909Z,9.91
2023-03-13T06:51:55.090Z,9.92
2023-03-13T06:55:20.270Z,9.78
2023-03-13T06:58:45.483Z,9.65
2023-03-13T07:02:10.712Z,9.63
2023-03-13T07:05:35.899Z,9.76
2023-03-13T07:09:01.110Z,9.93
2023-03-13T07:12:26.361Z,10.02
2023-03-13T07:15:51.594Z,10.14
2023-03-13T07:19:16.841Z,10.24
2023-03-13T07:22:42.100Z,10.36
2023-03-13T07:26:07.295Z,10.38
2023-03-13T07:29:32.480Z,10.35
2023-03-13T07:32:57.671Z,10.3
2023-03-13T07:36:22.994Z,10.25
2023-03-13T07:39:48.056Z,10.23
2023-03-13T07:43:13.268Z,10.23
2023-03-13T07:46:38.426Z,10.22
2023-03-13T07:50:03.760Z,10.2
2023-03-13T07:53:28.947Z,10.2
2023-03-13T07:56:54.018Z,10.19
2023-03-13T08:00:19.192Z,10.21
2023-03-13T08:03:44.413Z,10.22
2023-03-13T08:07:09.555Z,10.24
2023-03-13T08:10:34.865Z,10.26
2023-03-13T08:13:59.936Z,10.29
2023-03-13T08:17:25.097Z,10.3
2023-03-13T08:20:50.287Z,10.32
2023-03-13T08:24:15.464Z,10.34
2023-03-13T08:27:40.676Z,10.38
2023-03-13T08:31:05.933Z,10.42
2023-03-13T08:34:31.023Z,10.49
2023-03-13T08:37:56.213Z,10.55
2023-03-13T08:41:21.400Z,10.61
2023-03-13T08:44:46.637Z,10.69
2023-03-13T08:48:11.790Z,10.75
2023-03-13T08:51:36.959Z,10.81
2023-03-13T08:55:02.176Z,10.87
2023-03-13T08:58:27.360Z,10.94
2023-03-13T09:01:52.561Z,10.98
2023-03-13T09:05:17.754Z,11.01
2023-03-13T09:08:42.965Z,11.03
2023-03-13T09:12:13.157Z,11.03
2023-03-13T09:15:33.480Z,11.06
2023-03-13T09:18:58.698Z,11.12
2023-03-13T09:22:23.860Z,11.2
2023-03-13T09:25:49.057Z,11.28
2023-03-13T09:29:14.260Z,11.37
2023-03-13T09:32:39.577Z,11.45
2023-03-13T09:36:04.808Z,11.48
2023-03-13T09:39:29.916Z,11.51
2023-03-13T09:42:55.118Z,11.56
2023-03-13T09:46:20.436Z,11.61
2023-03-13T09:49:45.542Z,11.65
2023-03-13T09:53:10.734Z,11.68
2023-03-13T09:56:35.880Z,11.7
2023-03-13T10:00:01.097Z,11.75
2023-03-13T10:03:26.302Z,11.8
2023-03-13T10:06:51.517Z,11.84
2023-03-13T10:10:16.765Z,11.83
2023-03-13T10:13:41.949Z,11.82
2023-03-13T10:17:07.158Z,11.82
2023-03-13T10:20:32.346Z,11.84
2023-03-13T10:23:57.547Z,11.88
2023-03-13T10:27:22.760Z,11.93
2023-03-13T10:30:47.905Z,12.01
2023-03-13T10:34:13.115Z,12.05
2023-03-13T10:37:38.299Z,12.12
2023-03-13T10:41:03.495Z,12.19
2023-03-13T10:44:28.731Z,12.2
2023-03-13T10:47:53.896Z,12.21
2023-03-13T10:51:19.097Z,12.2
2023-03-13T10:54:44.288Z,12.2
2023-03-13T10:58:09.503Z,12.2
2023-03-13T11:01:34.762Z,12.19
2023-03-13T11:04:59.988Z,12.2
2023-03-13T11:08:25.256Z,12.26
2023-03-13T11:11:50.420Z,12.3
2023-03-13T11:15:15.676Z,12.34
2023-03-13T11:18:40.834Z,12.36
2023-03-13T11:22:06.022Z,12.39
2023-03-13T11:25:31.175Z,12.42
2023-03-13T11:28:56.381Z,12.46
2023-03-13T11:32:21.645Z,12.47
2023-03-13T11:35:46.915Z,12.48
2023-03-13T11:39:12.004Z,12.5
2023-03-13T11:42:37.314Z,12.51
2023-03-13T11:46:02.633Z,12.53
2023-03-13T11:49:27.712Z,12.58
2023-03-13T11:52:53.003Z,12.61
2023-03-13T11:56:18.136Z,12.65
2023-03-13T11:59:43.349Z,12.7
2023-03-13T12:03:08.597Z,12.73
2023-03-13T12:06:33.766Z,12.78
2023-03-13T12:09:59.000Z,12.8
2023-03-13T12:13:24.190Z,12.84
2023-03-13T12:16:49.516Z,12.86
2023-03-13T12:20:14.688Z,12.88
2023-03-13T12:23:39.914Z,12.89
2023-03-13T12:27:05.079Z,12.92
2023-03-13T12:30:30.309Z,12.93
2023-03-13T12:33:55.477Z,12.98
2023-03-13T12:37:20.694Z,12.99
2023-03-13T12:40:45.895Z,13
2023-03-13T12:44:11.137Z,13.02
2023-03-13T12:47:36.319Z,13.03
2023-03-13T12:51:01.520Z,13.03
2023-03-13T12:54:26.729Z,13.05
2023-03-13T12:57:52.018Z,13.07
2023-03-13T13:01:17.220Z,13.1
2023-03-13T13:04:42.422Z,13.14
2023-03-13T13:08:07.588Z,13.17
2023-03-13T13:11:32.778Z,13.19
2023-03-13T13:14:57.993Z,13.2
2023-03-13T13:18:23.237Z,13.2
2023-03-13T13:21:48.482Z,13.17
2023-03-13T13:25:13.666Z,13.17
2023-03-13T13:28:38.879Z,13.19
2023-03-13T13:32:04.148Z,13.17
2023-03-13T13:35:29.358Z,13.2
2023-03-13T13:38:54.554Z,13.25
2023-03-13T13:42:19.762Z,13.31
2023-03-13T13:45:45.002Z,13.37
2023-03-13T13:49:10.228Z,13.43
2023-03-13T13:52:35.444Z,13.52
2023-03-13T13:56:00.595Z,13.57
2023-03-13T13:59:25.808Z,13.59
2023-03-13T14:02:50.988Z,13.61
2023-03-13T14:06:16.209Z,13.62
2023-03-13T14:09:41.532Z,13.64
2023-03-13T14:13:06.625Z,13.67
2023-03-13T14:16:32.253Z,13.68
2023-03-13T14:19:57.532Z,13.7
2023-03-13T14:23:23.793Z,13.72
2023-03-13T14:26:49.118Z,13.75
2023-03-13T14:30:14.191Z,13.78
2023-03-13T15:03:45.683Z,12.79
2023-03-13T15:07:10.877Z,13.79
2023-03-13T15:10:36.077Z,14.02
2023-03-13T15:14:01.287Z,14.23
2023-03-13T15:17:26.604Z,14.41
2023-03-13T15:20:51.843Z,14.53
2023-03-13T15:24:16.864Z,14.64
2023-03-13T15:27:42.079Z,14.69
2023-03-13T15:31:07.278Z,14.77
2023-03-13T15:34:32.500Z,14.81
2023-03-13T15:37:57.733Z,14.85
2023-03-13T15:41:22.956Z,14.9
2023-03-13T15:44:48.198Z,14.93
2023-03-13T15:48:13.434Z,14.96
2023-03-13T15:51:38.652Z,14.99
2023-03-13T15:55:03.969Z,15
2023-03-13T15:58:29.163Z,15
2023-03-13T16:01:54.366Z,15.02
2023-03-13T16:05:19.577Z,15.01
2023-03-13T16:08:44.792Z,15.02
2023-03-13T16:12:10.042Z,15.03
2023-03-13T16:15:35.237Z,15
2023-03-13T16:19:00.474Z,14.97
2023-03-13T16:22:25.710Z,14.95
2023-03-13T16:25:50.984Z,14.93
2023-03-13T16:29:16.215Z,14.91
2023-03-13T16:32:41.421Z,14.89
2023-03-13T16:36:06.700Z,14.88
2023-03-13T16:39:31.864Z,14.85
2023-03-13T16:42:57.138Z,14.8
2023-03-13T16:46:22.576Z,14.76
2023-03-13T16:49:48.051Z,14.7
2023-03-13T16:53:13.183Z,14.65
2023-03-13T16:56:38.476Z,14.6
2023-03-13T17:00:03.715Z,14.56
2023-03-13T17:03:28.984Z,14.51
2023-03-13T17:06:54.175Z,14.46
2023-03-13T17:10:19.416Z,14.42
2023-03-13T17:13:45.385Z,14.4
2023-03-13T17:17:10.641Z,14.37
2023-03-13T17:20:35.915Z,14.36
2023-03-13T17:24:01.108Z,14.33
2023-03-13T17:27:26.436Z,14.31
2023-03-13T17:30:51.678Z,14.3
2023-03-13T17:34:16.887Z,14.3
2023-03-13T17:37:42.194Z,14.29
2023-03-13T17:41:07.276Z,14.28
2023-03-13T17:44:32.508Z,14.29
2023-03-13T17:47:57.795Z,14.3
2023-03-13T17:51:23.007Z,14.32
2023-03-13T17:54:48.259Z,14.36
2023-03-13T17:58:13.447Z,14.37
